Time;durP1;ratioP1;P1;durP2;ratioP2;P2;SDS_P1;SDS_P2;PMS_P1;PMS_P2;Temp;Humidity;BMP_temperature;BMP_pressure;BME280_temperature;BME280_humidity;BME280_pressure;Samples;Min_cycle;Max_cycle;Signal;HPM_P1;HPM_P2
2023/07/07 20:05:15;;;;;;;26.70;12.30;;;;;;;17.27;62.09;99462.13;132529;1313;544769;-83
2023/07/07 20:08:18;;;;;;;22.80;13.30;;;;;;;17.11;62.83;99465.36;135498;1285;22391;-83
2023/07/07 20:11:23;;;;;;;33.80;14.00;;;;;;;16.96;63.83;99469.99;136301;1284;22439;-82
2023/07/07 20:14:27;;;;;;;33.90;14.40;;;;;;;16.84;65.27;99466.53;135718;1288;22487;-85
2023/07/07 20:17:29;;;;;;;85.50;17.60;;;;;;;17.60;67.33;99468.45;135855;1282;130733;-86
2023/07/07 20:20:32;;;;;;;24.50;13.30;;;;;;;18.71;64.94;99468.08;136339;1286;22737;-85
2023/07/07 20:23:34;;;;;;;29.00;15.70;;;;;;;19.53;62.40;99467.98;136153;1286;22569;-85
2023/07/07 20:26:37;;;;;;;28.90;14.60;;;;;;;20.06;60.43;99471.98;135940;1286;22588;-85
2023/07/07 20:29:39;;;;;;;42.90;16.50;;;;;;;20.24;59.70;99471.31;136266;1286;22574;-85
2023/07/07 20:32:42;;;;;;;26.80;16.50;;;;;;;20.31;58.49;99476.14;136344;1286;22315;-85
2023/07/07 20:35:44;;;;;;;37.60;17.40;;;;;;;19.67;57.03;99479.61;136496;1286;22283;-84
2023/07/07 20:38:47;;;;;;;34.90;17.70;;;;;;;18.80;58.14;99478.75;136414;1286;22539;-81
2023/07/07 20:41:49;;;;;;;33.10;17.00;;;;;;;18.30;55.98;99487.16;136456;1286;22335;-84
2023/07/07 20:44:52;;;;;;;30.50;15.00;;;;;;;18.28;56.42;99493.54;135943;1286;22301;-84
2023/07/07 20:47:54;;;;;;;22.80;13.90;;;;;;;18.35;56.60;99494.17;136147;1284;22574;-84
2023/07/07 20:50:57;;;;;;;31.30;15.10;;;;;;;18.83;56.58;99495.99;136330;1285;22333;-84
2023/07/07 20:54:03;;;;;;;25.20;14.00;;;;;;;19.18;56.37;99499.67;135907;1286;22258;-85
2023/07/07 20:57:05;;;;;;;23.40;12.60;;;;;;;19.41;56.81;99503.08;136220;1281;22209;-84
2023/07/07 21:00:08;;;;;;;22.10;13.30;;;;;;;19.62;56.82;99502.65;136608;1281;22654;-85
2023/07/07 21:03:10;;;;;;;19.90;12.50;;;;;;;19.81;57.64;99506.27;136246;1280;22196;-85
2023/07/07 21:06:13;;;;;;;25.10;12.50;;;;;;;19.91;57.61;99509.28;136937;1280;22280;-86
2023/07/07 21:09:15;;;;;;;19.30;10.70;;;;;;;20.00;57.57;99510.75;136855;1276;22808;-85
2023/07/07 21:12:20;;;;;;;19.10;11.00;;;;;;;20.18;58.05;99513.30;137045;1280;22147;-85
2023/07/07 21:15:22;;;;;;;16.50;10.30;;;;;;;20.32;57.96;99512.52;136771;1280;22167;-85
2023/07/07 21:18:25;;;;;;;14.80;9.70;;;;;;;20.46;57.54;99510.55;136801;1280;22149;-85
2023/07/07 21:21:27;;;;;;;15.10;8.70;;;;;;;20.53;57.16;99512.20;136752;1280;22172;-86
2023/07/07 21:24:32;;;;;;;20.10;8.50;;;;;;;20.51;57.12;99509.23;136843;1280;22254;-86
2023/07/07 21:27:35;;;;;;;15.00;8.70;;;;;;;20.40;57.02;99508.17;136833;1280;22242;-85
2023/07/07 21:30:38;;;;;;;14.00;8.40;;;;;;;20.25;57.26;99510.17;137576;1266;22187;-85
2023/07/07 21:33:43;;;;;;;9.50;8.00;;;;;;;20.09;57.74;99506.37;137626;1273;22215;-85
2023/07/07 21:36:46;;;;;;;12.90;8.40;;;;;;;20.07;58.28;99507.46;137516;1273;22859;-86
2023/07/07 21:39:49;;;;;;;13.20;8.00;;;;;;;20.08;58.13;99511.00;137491;1272;22389;-85
2023/07/07 21:42:52;;;;;;;9.00;7.60;;;;;;;19.99;58.30;99509.19;137604;1273;22158;-88
2023/07/07 21:45:54;;;;;;;14.00;8.40;;;;;;;20.03;58.74;99507.88;137572;1273;22201;-85
2023/07/07 21:48:57;;;;;;;12.40;8.10;;;;;;;20.12;58.36;99506.15;137533;1273;22157;-86
2023/07/07 21:51:59;;;;;;;16.60;8.10;;;;;;;20.08;58.43;99505.52;137520;1273;22451;-85
2023/07/07 21:55:02;;;;;;;9.70;7.30;;;;;;;19.99;58.14;99506.72;137585;1273;22251;-85
2023/07/07 21:58:05;;;;;;;33.00;8.70;;;;;;;19.94;58.50;99510.84;137538;1273;22267;-85
2023/07/07 22:01:07;;;;;;;11.20;7.00;;;;;;;19.89;58.63;99509.30;137580;1273;22172;-86
2023/07/07 22:04:10;;;;;;;15.60;8.00;;;;;;;19.80;58.44;99509.27;137373;1273;22534;-85
2023/07/07 22:07:14;;;;;;;11.50;7.10;;;;;;;19.63;58.50;99510.74;137491;1270;22254;-86
2023/07/07 22:10:16;;;;;;;12.60;7.70;;;;;;;19.62;59.22;99511.84;137498;1274;22183;-86
2023/07/07 22:13:19;;;;;;;9.10;7.80;;;;;;;19.68;59.16;99511.91;137415;1273;22523;-85
2023/07/07 22:16:21;;;;;;;15.50;7.80;;;;;;;19.82;58.93;99509.41;137357;1274;22560;-85
2023/07/07 22:19:24;;;;;;;72.90;11.90;;;;;;;19.83;59.03;99507.45;137314;1274;22210;-86
2023/07/07 22:22:26;;;;;;;22.20;9.50;;;;;;;19.85;58.88;99505.67;137485;1273;22169;-85
2023/07/07 22:25:29;;;;;;;32.80;9.60;;;;;;;19.78;59.18;99504.54;137364;1274;22682;-85
2023/07/07 22:28:31;;;;;;;15.60;8.80;;;;;;;19.83;59.14;99503.58;137433;1274;22653;-85
2023/07/07 22:31:34;;;;;;;12.30;8.90;;;;;;;19.90;58.61;99503.64;137493;1273;22715;-85
2023/07/07 22:34:36;;;;;;;68.80;11.70;;;;;;;19.87;58.23;99508.63;137359;1274;22163;-85
2023/07/07 22:37:39;;;;;;;11.20;8.50;;;;;;;19.80;58.48;99505.38;137542;1274;22178;-86
2023/07/07 22:40:44;;;;;;;27.10;9.30;;;;;;;19.83;58.06;99503.93;137410;1274;22264;-85
2023/07/07 22:43:47;;;;;;;9.60;8.30;;;;;;;19.76;57.88;99502.09;137316;1274;22186;-85
2023/07/07 22:46:49;;;;;;;12.80;9.10;;;;;;;19.73;58.22;99499.30;137302;1274;22540;-84
2023/07/07 22:49:52;;;;;;;18.40;9.30;;;;;;;19.57;56.87;99496.52;137340;1274;22212;-85
2023/07/07 22:52:54;;;;;;;19.60;10.70;;;;;;;18.44;56.48;99503.58;137448;1273;22181;-84
2023/07/07 22:55:57;;;;;;;18.20;10.80;;;;;;;17.23;58.49;99501.17;137224;1274;22851;-85
2023/07/07 22:58:59;;;;;;;15.90;10.70;;;;;;;16.26;60.71;99502.08;137340;1274;22263;-84
2023/07/07 23:02:02;;;;;;;16.30;10.90;;;;;;;15.55;62.56;99502.67;137116;1274;22639;-84
2023/07/07 23:05:04;;;;;;;16.60;10.90;;;;;;;15.09;64.39;99504.09;137384;1270;22328;-85
2023/07/07 23:08:06;;;;;;;26.50;12.50;;;;;;;14.75;66.15;99503.39;136933;1274;22629;-84
2023/07/07 23:11:10;;;;;;;19.20;11.30;;;;;;;14.48;67.51;99502.15;136723;1274;22200;-86
2023/07/07 23:14:13;;;;;;;21.60;11.40;;;;;;;14.21;68.97;99500.88;137072;1274;22230;-84
2023/07/07 23:17:19;;;;;;;34.20;11.70;;;;;;;13.95;69.78;99501.35;137150;1274;22194;-84
2023/07/07 23:20:22;;;;;;;14.90;10.50;;;;;;;13.75;70.95;99498.35;137197;1274;23014;-84
2023/07/07 23:23:27;;;;;;;49.90;15.20;;;;;;;13.57;71.91;99496.08;137232;1274;22168;-85
2023/07/07 23:26:33;;;;;;;20.00;11.40;;;;;;;13.41;73.21;99493.28;136911;1274;22520;-84
2023/07/07 23:29:35;;;;;;;19.30;11.00;;;;;;;13.29;73.98;99498.75;137231;1274;22852;-84
2023/07/07 23:32:38;;;;;;;22.40;11.60;;;;;;;13.18;74.66;99498.25;137376;1274;22706;-85
2023/07/07 23:35:40;;;;;;;14.80;11.50;;;;;;;13.05;75.69;99503.15;137252;1274;22509;-86
2023/07/07 23:38:44;;;;;;;96.90;16.70;;;;;;;12.96;76.58;99505.09;136779;1274;22568;-84
2023/07/07 23:41:47;;;;;;;20.50;11.00;;;;;;;12.86;77.30;99502.70;136528;1274;22504;-84
2023/07/07 23:44:50;;;;;;;31.70;13.00;;;;;;;12.76;78.01;99505.54;136674;1267;22613;-84
2023/07/07 23:47:52;;;;;;;14.50;10.70;;;;;;;12.68;78.43;99505.25;137000;1274;22542;-85
2023/07/07 23:50:55;;;;;;;20.30;10.60;;;;;;;12.57;78.81;99502.29;137327;1274;22564;-85
2023/07/07 23:53:58;;;;;;;17.20;11.10;;;;;;;12.49;79.20;99509.16;136931;1274;22257;-85
2023/07/07 23:57:00;;;;;;;20.10;11.10;;;;;;;12.42;79.88;99512.20;137302;1274;22255;-84
